createdAt,value
2018-07-26T00:00:00.840Z,20.59
2018-07-26T00:02:28.165Z,20.61
2018-07-26T00:04:55.164Z,20.57
2018-07-26T00:07:22.233Z,20.65
2018-07-26T00:09:49.524Z,20.60
2018-07-26T00:12:16.522Z,20.57
2018-07-26T00:14:45.642Z,20.57
2018-07-26T00:17:12.762Z,20.55
2018-07-26T00:19:40.035Z,20.58
2018-07-26T00:22:07.712Z,20.56
2018-07-26T00:24:34.841Z,20.56
2018-07-26T00:27:01.968Z,20.54
2018-07-26T00:29:29.211Z,20.52
2018-07-26T00:31:56.367Z,20.49
2018-07-26T00:34:23.582Z,20.52
2018-07-26T00:36:50.736Z,20.55
2018-07-26T00:39:17.932Z,20.62
2018-07-26T00:41:45.147Z,20.59
2018-07-26T00:44:12.285Z,20.46
2018-07-26T00:46:39.587Z,20.48
2018-07-26T00:49:06.572Z,20.45
2018-07-26T00:51:33.719Z,20.40
2018-07-26T00:54:00.779Z,20.38
2018-07-26T00:56:27.871Z,20.35
2018-07-26T00:58:54.846Z,20.46
2018-07-26T01:01:22.523Z,20.37
2018-07-26T01:03:49.534Z,20.35
2018-07-26T01:06:16.512Z,20.29
2018-07-26T01:08:43.530Z,20.25
2018-07-26T01:11:10.650Z,20.26
2018-07-26T01:13:37.640Z,20.33
2018-07-26T01:16:04.836Z,20.33
2018-07-26T01:18:31.838Z,20.36
2018-07-26T01:20:59.028Z,20.27
2018-07-26T01:23:26.052Z,20.33
2018-07-26T01:25:53.142Z,20.45
2018-07-26T01:28:20.458Z,20.37
2018-07-26T01:30:47.499Z,20.27
2018-07-26T01:33:14.777Z,20.24
2018-07-26T01:35:41.906Z,20.19
2018-07-26T01:38:12.286Z,20.21
2018-07-26T01:40:44.092Z,20.18
2018-07-26T01:43:23.752Z,20.16
2018-07-26T01:45:50.751Z,20.11
2018-07-26T01:48:17.736Z,20.07
2018-07-26T01:50:44.743Z,20.12
2018-07-26T01:53:11.755Z,20.08
2018-07-26T01:55:38.831Z,20.17
2018-07-26T01:58:05.835Z,20.17
2018-07-26T02:00:32.838Z,20.25
2018-07-26T02:03:00.244Z,20.22
2018-07-26T02:05:27.217Z,20.19
2018-07-26T02:07:54.198Z,20.21
2018-07-26T02:10:21.182Z,20.25
2018-07-26T02:12:48.192Z,20.27
2018-07-26T02:15:15.295Z,20.25
2018-07-26T02:17:42.312Z,20.20
2018-07-26T02:20:09.458Z,20.22
2018-07-26T02:22:36.559Z,20.35
2018-07-26T02:25:03.964Z,20.36
2018-07-26T02:27:30.967Z,20.50
2018-07-26T02:29:58.050Z,20.36
2018-07-26T02:32:25.238Z,20.26
2018-07-26T02:34:52.306Z,20.38
2018-07-26T02:37:19.295Z,20.41
2018-07-26T02:39:46.292Z,20.50
2018-07-26T02:42:13.347Z,20.54
2018-07-26T02:44:40.339Z,20.48
2018-07-26T02:47:07.335Z,20.41
2018-07-26T02:49:34.319Z,20.37
2018-07-26T02:52:01.287Z,20.28
2018-07-26T02:54:28.749Z,20.35
2018-07-26T02:56:55.720Z,20.33
2018-07-26T02:59:22.696Z,20.29
2018-07-26T03:01:49.695Z,20.26
2018-07-26T03:04:16.697Z,20.27
2018-07-26T03:06:43.691Z,20.29
2018-07-26T03:09:10.681Z,20.33
2018-07-26T03:11:37.711Z,20.30
2018-07-26T03:14:04.961Z,20.21
2018-07-26T03:16:31.956Z,20.26
2018-07-26T03:18:59.036Z,20.29
2018-07-26T03:21:26.048Z,20.28
2018-07-26T03:23:53.287Z,20.23
2018-07-26T03:26:20.297Z,20.23
2018-07-26T03:28:47.339Z,20.24
2018-07-26T03:31:14.316Z,20.23
2018-07-26T03:33:41.312Z,20.28
2018-07-26T03:36:08.772Z,20.29
2018-07-26T03:38:35.771Z,20.28
2018-07-26T03:41:02.814Z,20.28
2018-07-26T03:43:29.822Z,20.31
2018-07-26T03:45:57.088Z,20.35
2018-07-26T03:48:24.219Z,20.39
2018-07-26T03:50:51.327Z,20.36
2018-07-26T03:53:18.357Z,20.36
2018-07-26T03:55:45.465Z,20.32
2018-07-26T03:58:12.532Z,20.29
2018-07-26T04:00:39.531Z,20.30
2018-07-26T04:03:06.657Z,20.30
2018-07-26T04:05:34.282Z,20.30
2018-07-26T04:08:01.228Z,20.32
2018-07-26T04:10:28.300Z,20.34
2018-07-26T04:12:55.383Z,20.33
2018-07-26T04:15:22.463Z,20.45
2018-07-26T04:17:53.511Z,20.44
2018-07-26T04:20:20.504Z,20.41
2018-07-26T04:22:47.591Z,20.45
2018-07-26T04:25:14.591Z,20.51
2018-07-26T04:27:41.740Z,20.50
2018-07-26T04:30:08.895Z,20.50
2018-07-26T04:32:35.855Z,20.63
2018-07-26T04:35:02.927Z,20.59
2018-07-26T04:37:29.911Z,20.66
2018-07-26T04:39:56.983Z,20.63
2018-07-26T04:42:23.965Z,20.73
2018-07-26T04:44:51.151Z,20.76
2018-07-26T04:47:18.131Z,20.77
2018-07-26T04:49:45.205Z,20.81
2018-07-26T04:52:12.236Z,20.88
2018-07-26T04:54:39.319Z,20.86
2018-07-26T04:57:06.296Z,20.93
2018-07-26T04:59:33.672Z,21.00
2018-07-26T05:02:00.756Z,21.09
2018-07-26T05:04:27.799Z,21.17
2018-07-26T05:06:54.795Z,21.12
2018-07-26T05:09:21.841Z,21.23
2018-07-26T05:11:48.838Z,21.31
2018-07-26T05:14:15.808Z,21.36
2018-07-26T05:16:42.872Z,21.38
2018-07-26T05:19:09.948Z,21.41
2018-07-26T05:21:36.939Z,21.49
2018-07-26T05:24:04.153Z,21.52
2018-07-26T05:26:31.295Z,21.53
2018-07-26T05:28:58.272Z,21.59
2018-07-26T05:31:25.409Z,21.67
2018-07-26T05:33:52.382Z,21.62
2018-07-26T05:36:19.460Z,21.68
2018-07-26T05:38:46.509Z,21.73
2018-07-26T05:41:13.543Z,21.78
2018-07-26T05:43:40.576Z,21.82
2018-07-26T05:46:07.591Z,21.84
2018-07-26T05:48:34.656Z,21.98
2018-07-26T05:51:01.817Z,22.06
2018-07-26T05:53:28.802Z,22.09
2018-07-26T05:55:55.820Z,22.15
2018-07-26T05:58:22.905Z,22.23
2018-07-26T06:00:49.908Z,22.34
2018-07-26T06:03:16.979Z,22.38
2018-07-26T06:05:43.988Z,22.41
2018-07-26T06:08:11.195Z,22.44
2018-07-26T06:10:38.201Z,22.46
2018-07-26T06:13:05.596Z,22.55
2018-07-26T06:15:32.672Z,22.65
2018-07-26T06:17:59.676Z,22.69
2018-07-26T06:20:26.828Z,22.84
2018-07-26T06:22:53.915Z,22.87
2018-07-26T06:25:20.896Z,22.96
2018-07-26T06:27:47.884Z,23.00
2018-07-26T06:30:14.884Z,23.19
2018-07-26T06:32:41.948Z,23.25
2018-07-26T06:35:09.616Z,23.41
2018-07-26T06:37:36.635Z,23.41
2018-07-26T06:40:04.368Z,23.46
2018-07-26T06:42:31.392Z,23.50
2018-07-26T06:44:58.387Z,23.53
2018-07-26T06:47:25.467Z,23.58
2018-07-26T06:49:52.538Z,23.77
2018-07-26T06:52:19.613Z,23.94
2018-07-26T06:54:46.619Z,23.94
2018-07-26T06:57:13.780Z,24.07
2018-07-26T06:59:40.857Z,24.18
2018-07-26T07:02:08.050Z,24.33
2018-07-26T07:04:35.435Z,24.30
2018-07-26T07:07:02.568Z,24.31
2018-07-26T07:09:29.578Z,24.37
2018-07-26T07:11:56.596Z,24.44
2018-07-26T07:14:23.748Z,24.62
2018-07-26T07:16:50.806Z,24.66
2018-07-26T07:19:17.936Z,24.68
2018-07-26T07:21:44.963Z,24.72
2018-07-26T07:24:16.649Z,24.87
2018-07-26T07:26:43.725Z,25.04
2018-07-26T07:29:10.921Z,25.10
2018-07-26T07:31:38.304Z,25.17
2018-07-26T07:34:05.759Z,25.18
2018-07-26T07:39:11.414Z,25.40
2018-07-26T07:41:39.422Z,25.56
2018-07-26T07:44:07.816Z,25.65
2018-07-26T07:46:36.415Z,25.72
2018-07-26T07:49:05.470Z,25.79
2018-07-26T07:51:34.151Z,25.84
2018-07-26T07:54:01.979Z,25.84
2018-07-26T07:56:29.777Z,25.98
2018-07-26T07:58:57.614Z,26.06
2018-07-26T08:01:25.464Z,26.06
2018-07-26T08:03:53.298Z,26.04
2018-07-26T08:06:21.348Z,26.12
2018-07-26T08:08:49.658Z,26.16
2018-07-26T08:11:16.745Z,26.18
2018-07-26T08:13:44.105Z,26.35
2018-07-26T08:16:11.335Z,26.42
2018-07-26T08:18:38.412Z,26.58
2018-07-26T08:21:05.588Z,26.65
2018-07-26T08:23:32.741Z,26.68
2018-07-26T08:25:59.774Z,26.81
2018-07-26T08:28:26.800Z,26.92
2018-07-26T08:30:54.932Z,26.94
2018-07-26T08:33:22.384Z,27.10
2018-07-26T08:35:49.459Z,27.07
2018-07-26T08:38:16.477Z,27.13
2018-07-26T08:40:43.497Z,27.32
2018-07-26T08:43:10.514Z,27.43
2018-07-26T08:45:37.641Z,27.37
2018-07-26T08:48:04.877Z,27.49
2018-07-26T08:50:32.085Z,27.59
2018-07-26T08:52:59.200Z,27.63
2018-07-26T08:55:26.212Z,27.83
2018-07-26T08:57:53.492Z,27.78
2018-07-26T09:00:20.881Z,27.86
2018-07-26T09:02:48.481Z,28.03
2018-07-26T09:05:15.792Z,28.07
2018-07-26T09:07:43.327Z,28.14
2018-07-26T09:10:10.348Z,28.39
2018-07-26T09:12:37.628Z,28.42
2018-07-26T09:15:04.978Z,28.53
2018-07-26T09:17:31.976Z,28.65
2018-07-26T09:19:58.967Z,28.77
2018-07-26T09:22:25.978Z,28.80
2018-07-26T09:24:53.061Z,28.72
2018-07-26T09:27:20.339Z,28.83
2018-07-26T09:29:47.419Z,28.90
2018-07-26T09:32:14.635Z,28.99
2018-07-26T09:34:48.597Z,29.02
2018-07-26T09:37:15.779Z,29.17
2018-07-26T09:39:42.955Z,29.21
2018-07-26T09:42:09.973Z,29.31
2018-07-26T09:44:37.038Z,29.47
2018-07-26T09:47:04.103Z,29.53
2018-07-26T09:49:31.111Z,29.63
2018-07-26T09:51:59.491Z,29.63
2018-07-26T09:54:26.486Z,29.63
2018-07-26T09:56:53.572Z,29.76
2018-07-26T09:59:20.649Z,29.84
2018-07-26T10:01:48.507Z,29.85
2018-07-26T10:04:15.525Z,29.88
2018-07-26T10:06:42.584Z,29.98
2018-07-26T10:09:10.892Z,30.02
2018-07-26T10:11:37.897Z,30.08
2018-07-26T10:14:04.961Z,30.20
2018-07-26T10:16:32.055Z,30.24
2018-07-26T10:18:59.046Z,30.30
2018-07-26T10:21:26.060Z,30.43
2018-07-26T10:23:53.069Z,30.56
2018-07-26T10:26:20.106Z,30.51
2018-07-26T10:28:47.120Z,30.59
2018-07-26T10:31:14.167Z,30.67
2018-07-26T10:33:41.160Z,30.70
2018-07-26T10:36:08.256Z,30.83
2018-07-26T10:38:35.268Z,31.01
2018-07-26T10:41:02.331Z,31.01
2018-07-26T10:43:29.484Z,31.05
2018-07-26T10:45:56.562Z,30.97
2018-07-26T10:48:23.600Z,31.02
2018-07-26T10:50:50.723Z,31.06
2018-07-26T10:53:17.844Z,31.12
2018-07-26T10:55:44.890Z,31.22
2018-07-26T10:58:11.891Z,31.21
2018-07-26T11:00:38.929Z,31.19
2018-07-26T11:03:06.043Z,31.22
2018-07-26T11:05:33.339Z,31.27
2018-07-26T11:08:00.346Z,31.27
2018-07-26T11:10:27.432Z,31.25
2018-07-26T11:12:54.628Z,31.27
2018-07-26T11:15:29.249Z,31.25
2018-07-26T11:17:56.283Z,31.34
2018-07-26T11:20:23.383Z,31.48
2018-07-26T11:22:50.483Z,31.69
2018-07-26T11:25:17.507Z,31.77
2018-07-26T11:27:44.596Z,31.81
2018-07-26T11:30:11.677Z,31.83
2018-07-26T11:32:38.998Z,31.74
2018-07-26T11:35:06.016Z,31.62
2018-07-26T11:37:33.043Z,31.81
2018-07-26T11:40:00.087Z,31.90
2018-07-26T11:42:27.098Z,31.79
2018-07-26T11:44:54.364Z,31.79
2018-07-26T11:47:21.376Z,31.91
2018-07-26T11:49:48.476Z,31.90
2018-07-26T11:52:15.494Z,31.86
2018-07-26T11:54:42.497Z,31.62
2018-07-26T11:57:09.507Z,31.82
2018-07-26T11:59:36.666Z,32.02
2018-07-26T12:02:03.744Z,32.04
2018-07-26T12:04:30.987Z,32.33
2018-07-26T12:06:58.051Z,32.36
2018-07-26T12:09:25.139Z,32.12
2018-07-26T12:11:52.133Z,31.95
2018-07-26T12:14:19.132Z,32.05
2018-07-26T12:16:46.236Z,32.17
2018-07-26T12:19:13.244Z,32.23
2018-07-26T12:21:40.352Z,32.48
2018-07-26T12:24:07.375Z,32.81
2018-07-26T12:26:34.363Z,32.91
2018-07-26T12:29:01.443Z,33.11
2018-07-26T12:31:28.480Z,33.26
2018-07-26T12:33:55.474Z,33.36
2018-07-26T12:36:22.480Z,33.41
2018-07-26T12:38:49.687Z,33.52
2018-07-26T12:41:16.716Z,33.58
2018-07-26T12:43:43.793Z,33.48
2018-07-26T12:46:10.861Z,33.47
2018-07-26T12:48:38.268Z,34.03
2018-07-26T12:51:05.370Z,34.00
2018-07-26T12:53:32.460Z,34.60
2018-07-26T12:55:59.537Z,35.21
2018-07-26T12:58:26.570Z,35.65
2018-07-26T13:00:53.796Z,35.43
2018-07-26T13:03:20.964Z,35.94
2018-07-26T13:05:47.979Z,36.19
2018-07-26T13:08:14.988Z,36.32
2018-07-26T13:10:41.999Z,37.07
2018-07-26T13:13:09.243Z,36.15
2018-07-26T13:15:36.230Z,36.21
2018-07-26T13:18:03.239Z,36.13
2018-07-26T13:20:30.233Z,37.09
2018-07-26T13:22:57.259Z,37.58
2018-07-26T13:25:24.251Z,37.60
2018-07-26T13:27:51.340Z,36.85
2018-07-26T13:30:18.416Z,36.38
2018-07-26T13:32:45.507Z,36.55
2018-07-26T13:35:12.885Z,35.98
2018-07-26T13:37:39.958Z,35.87
2018-07-26T13:40:07.229Z,35.66
2018-07-26T13:42:34.417Z,36.41
2018-07-26T13:45:01.607Z,36.93
2018-07-26T13:47:28.620Z,37.15
2018-07-26T13:49:55.622Z,37.66
2018-07-26T13:52:22.704Z,37.22
2018-07-26T13:54:49.677Z,37.33
2018-07-26T13:57:16.703Z,37.21
2018-07-26T13:59:43.800Z,37.08
2018-07-26T14:02:11.617Z,36.75
2018-07-26T14:04:38.659Z,37.71
2018-07-26T14:07:05.667Z,38.27
2018-07-26T14:09:32.660Z,38.26
2018-07-26T14:11:59.832Z,36.95
2018-07-26T14:14:26.826Z,35.87
2018-07-26T14:16:53.833Z,35.48
2018-07-26T14:19:20.903Z,34.75
2018-07-26T14:21:48.000Z,34.18
2018-07-26T14:24:20.915Z,34.51
2018-07-26T14:26:47.964Z,34.55
2018-07-26T14:29:15.116Z,34.21
2018-07-26T14:31:42.323Z,33.98
2018-07-26T14:34:09.586Z,34.36
2018-07-26T14:36:36.575Z,34.79
2018-07-26T14:39:06.444Z,34.87
2018-07-26T14:41:33.579Z,35.87
2018-07-26T14:44:00.575Z,35.67
2018-07-26T14:46:27.640Z,35.40
2018-07-26T14:48:54.642Z,35.54
2018-07-26T14:51:21.668Z,35.14
2018-07-26T14:53:48.676Z,35.35
2018-07-26T14:56:15.692Z,34.79
2018-07-26T14:58:42.704Z,34.57
2018-07-26T15:01:09.726Z,34.53
2018-07-26T15:03:36.744Z,34.37
2018-07-26T15:06:03.777Z,34.43
2018-07-26T15:08:30.756Z,34.04
2018-07-26T15:10:57.916Z,33.88
2018-07-26T15:13:25.088Z,33.68
2018-07-26T15:15:52.173Z,33.37
2018-07-26T15:18:19.224Z,33.06
2018-07-26T15:20:46.320Z,33.34
2018-07-26T15:23:13.337Z,33.21
2018-07-26T15:25:40.359Z,32.98
2018-07-26T15:28:07.565Z,33.00
2018-07-26T15:30:34.606Z,32.94
2018-07-26T15:33:01.627Z,32.83
2018-07-26T15:35:28.719Z,32.69
2018-07-26T15:37:55.759Z,32.55
2018-07-26T15:40:22.865Z,32.43
2018-07-26T15:42:49.892Z,32.33
2018-07-26T15:45:16.943Z,32.32
2018-07-26T15:47:43.963Z,32.30
2018-07-26T15:50:11.080Z,32.18
2018-07-26T15:52:38.119Z,32.25
2018-07-26T15:55:05.260Z,32.30
2018-07-26T15:57:32.313Z,32.26
2018-07-26T16:00:00.189Z,32.37
2018-07-26T16:02:27.345Z,32.23
2018-07-26T16:04:54.439Z,32.14
2018-07-26T16:07:21.503Z,32.13
2018-07-26T16:09:48.573Z,32.06
2018-07-26T16:12:15.804Z,32.13
2018-07-26T16:14:42.848Z,32.10
2018-07-26T16:17:09.905Z,31.86
2018-07-26T16:19:37.144Z,31.72
2018-07-26T16:22:04.265Z,31.52
2018-07-26T16:24:32.056Z,31.53
2018-07-26T16:26:59.145Z,31.49
2018-07-26T16:29:26.230Z,31.36
2018-07-26T16:31:53.458Z,31.24
2018-07-26T16:34:20.512Z,31.46
2018-07-26T16:36:47.639Z,31.30
2018-07-26T16:39:14.768Z,31.28
2018-07-26T16:41:41.852Z,31.15
2018-07-26T16:44:08.924Z,31.07
2018-07-26T16:46:36.564Z,31.06
2018-07-26T16:49:04.160Z,31.01
2018-07-26T16:51:31.224Z,30.83
2018-07-26T16:53:58.279Z,30.81
2018-07-26T16:56:25.325Z,30.73
2018-07-26T16:58:52.757Z,30.70
2018-07-26T17:01:19.710Z,30.60
2018-07-26T17:03:46.898Z,30.52
2018-07-26T17:06:13.940Z,30.37
2018-07-26T17:08:41.346Z,30.38
2018-07-26T17:11:08.441Z,30.36
2018-07-26T17:13:35.490Z,30.31
2018-07-26T17:16:02.545Z,30.23
2018-07-26T17:18:29.820Z,30.15
2018-07-26T17:20:56.880Z,30.25
2018-07-26T17:23:23.963Z,30.10
2018-07-26T17:25:50.995Z,30.04
2018-07-26T17:28:18.035Z,29.94
2018-07-26T17:30:45.060Z,29.91
2018-07-26T17:33:12.087Z,29.84
2018-07-26T17:35:39.220Z,29.78
2018-07-26T17:38:06.273Z,29.74
2018-07-26T17:40:33.312Z,29.68
2018-07-26T17:43:00.508Z,29.70
2018-07-26T17:45:27.583Z,29.60
2018-07-26T17:47:54.580Z,29.35
2018-07-26T17:50:21.639Z,29.50
2018-07-26T17:52:48.637Z,29.46
2018-07-26T17:55:15.696Z,29.43
2018-07-26T17:57:42.804Z,29.36
2018-07-26T18:00:11.571Z,29.28
2018-07-26T18:02:38.629Z,29.20
2018-07-26T18:05:06.107Z,29.15
2018-07-26T18:07:33.308Z,29.09
2018-07-26T18:10:00.306Z,29.07
2018-07-26T18:12:27.310Z,29.01
2018-07-26T18:14:54.701Z,28.97
2018-07-26T18:17:21.704Z,28.91
2018-07-26T18:19:48.835Z,28.87
2018-07-26T18:22:15.880Z,28.81
2018-07-26T18:24:42.945Z,28.74
2018-07-26T18:27:10.223Z,28.68
2018-07-26T18:29:37.346Z,28.63
2018-07-26T18:32:04.628Z,28.60
2018-07-26T18:34:31.627Z,28.52
2018-07-26T18:36:58.620Z,28.41
2018-07-26T18:39:25.616Z,28.43
2018-07-26T18:41:52.596Z,28.36
2018-07-26T18:44:19.688Z,28.30
2018-07-26T18:46:46.691Z,28.25
2018-07-26T18:49:13.740Z,28.18
2018-07-26T18:51:40.794Z,28.10
2018-07-26T18:54:07.949Z,28.14
2018-07-26T18:56:34.945Z,28.07
2018-07-26T18:59:02.027Z,27.96
2018-07-26T19:01:29.136Z,27.94
2018-07-26T19:03:56.202Z,27.88
2018-07-26T19:06:23.389Z,27.82
2018-07-26T19:08:50.856Z,27.77
2018-07-26T19:11:17.871Z,27.70
2018-07-26T19:13:44.878Z,27.67
2018-07-26T19:16:11.913Z,27.65
2018-07-26T19:18:38.919Z,27.55
2018-07-26T19:21:06.259Z,27.48
2018-07-26T19:23:33.256Z,27.46
2018-07-26T19:26:00.455Z,27.40
2018-07-26T19:28:27.821Z,27.34
2018-07-26T19:30:55.267Z,27.32
2018-07-26T19:33:22.317Z,27.26
2018-07-26T19:35:51.121Z,27.16
2018-07-26T19:38:18.282Z,27.11
2018-07-26T19:40:45.275Z,27.08
2018-07-26T19:43:12.423Z,27.06
2018-07-26T19:45:39.432Z,27.01
2018-07-26T19:48:07.429Z,26.94
2018-07-26T19:50:34.444Z,26.91
2018-07-26T19:53:01.559Z,26.85
2018-07-26T19:55:28.882Z,26.79
2018-07-26T19:57:56.013Z,26.69
2018-07-26T20:00:23.140Z,26.66
2018-07-26T20:02:50.131Z,26.58
2018-07-26T20:05:17.519Z,26.58
2018-07-26T20:07:44.511Z,26.55
2018-07-26T20:10:12.460Z,26.50
2018-07-26T20:12:39.783Z,26.40
2018-07-26T20:15:07.063Z,26.39
2018-07-26T20:17:34.285Z,26.33
2018-07-26T20:20:01.360Z,26.29
2018-07-26T20:22:28.539Z,26.26
2018-07-26T20:24:56.203Z,26.19
2018-07-26T20:27:23.232Z,26.18
2018-07-26T20:29:50.263Z,26.09
2018-07-26T20:32:17.271Z,26.04
2018-07-26T20:34:44.731Z,26.06
2018-07-26T20:37:11.840Z,25.94
2018-07-26T20:39:38.942Z,25.92
2018-07-26T20:42:06.041Z,25.85
2018-07-26T20:44:33.271Z,25.87
2018-07-26T20:47:00.483Z,25.81
2018-07-26T20:49:27.492Z,25.76
2018-07-26T20:51:55.212Z,25.70
2018-07-26T20:54:22.463Z,25.61
2018-07-26T20:56:49.456Z,25.61
2018-07-26T20:59:16.558Z,25.54
2018-07-26T21:01:43.539Z,25.49
2018-07-26T21:04:10.516Z,25.45
2018-07-26T21:06:37.540Z,25.45
2018-07-26T21:09:07.856Z,25.43
2018-07-26T21:11:35.008Z,25.43
2018-07-26T21:14:02.002Z,25.44
2018-07-26T21:16:29.105Z,25.37
2018-07-26T21:18:56.097Z,25.28
2018-07-26T21:21:23.113Z,25.25
2018-07-26T21:23:50.092Z,25.24
2018-07-26T21:26:17.167Z,25.20
2018-07-26T21:28:44.164Z,25.13
2018-07-26T21:31:11.155Z,25.04
2018-07-26T21:33:38.180Z,25.05
2018-07-26T21:36:05.187Z,25.00
2018-07-26T21:38:32.186Z,24.94
2018-07-26T21:40:59.174Z,24.87
2018-07-26T21:43:26.363Z,24.93
2018-07-26T21:45:53.366Z,24.88
2018-07-26T21:48:20.687Z,24.79
2018-07-26T21:50:48.503Z,24.71
2018-07-26T21:53:15.707Z,24.72
2018-07-26T21:55:42.827Z,24.66
2018-07-26T21:58:09.862Z,24.68
2018-07-26T22:00:42.096Z,24.62
2018-07-26T22:03:09.739Z,24.59
2018-07-26T22:05:36.824Z,24.62
2018-07-26T22:08:03.982Z,24.54
2018-07-26T22:10:31.568Z,24.45
2018-07-26T22:12:58.728Z,24.42
2018-07-26T22:15:25.713Z,24.36
2018-07-26T22:17:52.731Z,24.34
2018-07-26T22:20:20.087Z,24.33
2018-07-26T22:22:47.167Z,24.35
2018-07-26T22:25:14.494Z,24.30
2018-07-26T22:27:41.555Z,24.28
2018-07-26T22:30:08.743Z,24.23
2018-07-26T22:32:35.739Z,24.26
2018-07-26T22:35:02.968Z,24.13
2018-07-26T22:37:29.973Z,24.09
2018-07-26T22:39:56.951Z,24.09
2018-07-26T22:42:23.957Z,24.05
2018-07-26T22:44:50.968Z,24.02
2018-07-26T22:47:18.055Z,23.89
2018-07-26T22:49:45.064Z,23.83
2018-07-26T22:52:12.167Z,23.75
2018-07-26T22:54:39.160Z,23.73
2018-07-26T22:57:06.193Z,23.71
2018-07-26T22:59:33.188Z,23.65
2018-07-26T23:02:00.284Z,23.65
2018-07-26T23:04:27.884Z,23.64
2018-07-26T23:06:54.896Z,23.72
2018-07-26T23:09:22.533Z,23.61
2018-07-26T23:11:49.620Z,23.46
2018-07-26T23:14:17.039Z,23.43
2018-07-26T23:16:44.138Z,23.54
2018-07-26T23:19:11.133Z,23.47
2018-07-26T23:21:39.080Z,23.39
2018-07-26T23:24:06.083Z,23.36
2018-07-26T23:26:33.170Z,23.27
2018-07-26T23:29:00.526Z,23.20
2018-07-26T23:31:27.655Z,23.19
2018-07-26T23:33:54.932Z,23.20
2018-07-26T23:36:22.103Z,23.15
2018-07-26T23:38:49.284Z,23.13
2018-07-26T23:41:16.284Z,23.16
2018-07-26T23:43:43.483Z,23.14
2018-07-26T23:46:10.583Z,23.10
2018-07-26T23:48:37.748Z,23.11
2018-07-26T23:51:04.817Z,23.05
2018-07-26T23:53:32.081Z,23.02
2018-07-26T23:55:59.063Z,23.06
2018-07-26T23:58:26.107Z,23.05
